Time;durP1;ratioP1;P1;durP2;ratioP2;P2;SDS_P1;SDS_P2;PMS_P1;PMS_P2;Temp;Humidity;BMP_temperature;BMP_pressure;BME280_temperature;BME280_humidity;BME280_pressure;Samples;Min_cycle;Max_cycle;Signal;HPM_P1;HPM_P2
2021/04/20 00:01:55;;;;;;;22.33;13.98;;;8.60;83.10;;;;;;5094734;28;20020;-73
2021/04/20 00:04:21;;;;;;;21.92;13.63;;;8.60;83.20;;;;;;5097402;28;20020;-73
2021/04/20 00:06:47;;;;;;;20.20;13.77;;;8.50;83.20;;;;;;5095864;28;20028;-73
2021/04/20 00:09:12;;;;;;;21.65;13.52;;;8.50;83.20;;;;;;5095620;28;20032;-72
2021/04/20 00:11:39;;;;;;;20.73;13.73;;;8.40;83.20;;;;;;5089313;28;20028;-72
2021/04/20 00:14:06;;;;;;;22.27;14.63;;;8.40;83.30;;;;;;5095381;28;20069;-73
2021/04/20 00:16:32;;;;;;;20.25;14.02;;;8.40;83.40;;;;;;5094903;28;20061;-73
2021/04/20 00:18:58;;;;;;;21.73;13.68;;;8.40;83.60;;;;;;5095772;28;20028;-72
2021/04/20 00:21:24;;;;;;;22.63;13.98;;;8.40;83.70;;;;;;5096680;28;20110;-73
2021/04/20 00:23:50;;;;;;;24.80;13.98;;;8.30;83.80;;;;;;5095689;28;20020;-73
2021/04/20 00:26:16;;;;;;;21.05;13.60;;;8.30;84.00;;;;;;5094672;28;20024;-73
2021/04/20 00:28:42;;;;;;;21.88;14.13;;;8.30;84.30;;;;;;5094776;28;20028;-72
2021/04/20 00:31:07;;;;;;;21.77;13.70;;;8.20;84.50;;;;;;5095788;28;21403;-72
2021/04/20 00:33:33;;;;;;;22.50;14.00;;;8.20;84.80;;;;;;5095523;28;20091;-73
2021/04/20 00:35:59;;;;;;;23.55;13.60;;;8.20;85.00;;;;;;5095790;28;20189;-72
2021/04/20 00:38:25;;;;;;;23.23;13.85;;;8.20;85.20;;;;;;5096243;28;20456;-72
2021/04/20 00:40:51;;;;;;;23.92;14.27;;;8.20;85.50;;;;;;5098006;28;20051;-73
2021/04/20 00:43:17;;;;;;;23.70;15.35;;;8.20;85.60;;;;;;5096189;28;20020;-73
2021/04/20 00:45:43;;;;;;;23.63;14.77;;;8.20;85.90;;;;;;5096559;28;20020;-73
2021/04/20 00:48:10;;;;;;;25.02;14.70;;;8.20;86.10;;;;;;5097020;28;20036;-73
2021/04/20 00:50:40;;;;;;;22.88;14.48;;;8.20;86.90;;;;;;5096254;28;20032;-74
2021/04/20 00:53:08;;;;;;;24.48;14.82;;;8.10;86.50;;;;;;5095586;28;20023;-73
2021/04/20 00:55:35;;;;;;;24.65;15.52;;;8.10;86.60;;;;;;5095360;28;20020;-73
2021/04/20 00:58:01;;;;;;;23.38;14.70;;;8.10;86.90;;;;;;5094797;28;20020;-73
2021/04/20 01:00:29;;;;;;;25.75;15.07;;;8.10;87.10;;;;;;5094206;28;20024;-74
2021/04/20 01:02:55;;;;;;;23.38;14.07;;;8.10;87.20;;;;;;5096480;28;20024;-73
2021/04/20 01:05:30;;;;;;;27.00;14.98;;;8.10;87.30;;;;;;5095728;28;20020;-73
2021/04/20 01:07:58;;;;;;;22.00;14.15;;;8.10;87.60;;;;;;5096010;28;20084;-73
2021/04/20 01:10:25;;;;;;;23.17;14.57;;;8.00;87.50;;;;;;5094716;28;20122;-72
2021/04/20 01:12:51;;;;;;;26.63;15.02;;;8.10;87.70;;;;;;5093161;28;20106;-73
2021/04/20 01:15:17;;;;;;;26.00;15.40;;;8.00;87.90;;;;;;5094079;28;20115;-73
2021/04/20 01:17:43;;;;;;;24.30;15.23;;;8.00;88.10;;;;;;5094583;28;20032;-73
2021/04/20 01:20:10;;;;;;;25.42;15.60;;;8.00;88.20;;;;;;5094848;28;20020;-74
2021/04/20 01:22:42;;;;;;;26.35;15.07;;;7.90;88.20;;;;;;5094489;28;20130;-74
2021/04/20 01:25:10;;;;;;;28.65;15.82;;;7.90;88.40;;;;;;5094442;28;20020;-73
2021/04/20 01:27:37;;;;;;;24.80;14.75;;;7.90;88.50;;;;;;5096268;28;20595;-73
2021/04/20 01:30:05;;;;;;;24.90;15.00;;;7.90;88.70;;;;;;5096935;28;20481;-73
2021/04/20 01:32:31;;;;;;;27.10;15.15;;;7.80;88.80;;;;;;5094528;28;20016;-72
2021/04/20 01:34:57;;;;;;;26.23;14.73;;;7.80;88.80;;;;;;5094874;28;20020;-71
2021/04/20 01:37:23;;;;;;;28.50;16.08;;;7.80;89.10;;;;;;5097304;28;20374;-73
2021/04/20 01:39:50;;;;;;;28.48;16.38;;;7.80;89.30;;;;;;5095720;28;20081;-73
2021/04/20 01:42:16;;;;;;;28.35;16.40;;;7.70;89.50;;;;;;5096062;28;20056;-73
2021/04/20 01:44:42;;;;;;;32.05;16.45;;;7.70;89.70;;;;;;5093902;28;20046;-73
2021/04/20 01:47:09;;;;;;;27.90;16.50;;;7.70;89.90;;;;;;5087464;28;20024;-73
2021/04/20 01:49:35;;;;;;;31.02;17.55;;;7.70;90.10;;;;;;5088673;28;20016;-74
2021/04/20 01:52:02;;;;;;;29.92;17.15;;;7.70;90.20;;;;;;5093381;28;20435;-73
2021/04/20 01:54:28;;;;;;;31.63;17.85;;;7.60;90.30;;;;;;5092953;28;20373;-72
2021/04/20 01:56:56;;;;;;;32.42;17.20;;;7.70;90.50;;;;;;5092729;28;20034;-73
2021/04/20 01:59:22;;;;;;;30.67;16.83;;;7.60;90.50;;;;;;5085482;28;20025;-70
2021/04/20 02:01:48;;;;;;;30.65;16.83;;;7.70;90.70;;;;;;5073039;28;20411;-73
2021/04/20 02:04:14;;;;;;;31.98;17.55;;;7.70;90.70;;;;;;5078513;28;20024;-72
2021/04/20 02:06:40;;;;;;;31.25;17.73;;;7.70;90.80;;;;;;5088301;28;20135;-72
2021/04/20 02:09:08;;;;;;;34.45;19.27;;;7.70;90.90;;;;;;5090742;28;20043;-73
2021/04/20 02:11:34;;;;;;;30.52;18.65;;;7.70;90.90;;;;;;5094570;28;20031;-73
2021/04/20 02:14:00;;;;;;;29.17;17.15;;;7.70;90.90;;;;;;5094156;28;20028;-73
2021/04/20 02:16:27;;;;;;;33.92;19.23;;;7.70;91.00;;;;;;5084689;28;20094;-72
2021/04/20 02:18:57;;;;;;;32.08;18.50;;;7.80;91.00;;;;;;5086167;28;20020;-73
2021/04/20 02:21:23;;;;;;;35.85;17.77;;;7.70;91.00;;;;;;5090793;28;20077;-73
2021/04/20 02:23:49;;;;;;;33.83;18.88;;;7.80;91.00;;;;;;5093959;28;20031;-73
2021/04/20 02:26:19;;;;;;;33.53;19.25;;;7.80;91.00;;;;;;5092541;28;20386;-73
2021/04/20 02:28:45;;;;;;;33.38;18.17;;;7.70;90.90;;;;;;5093478;28;20722;-73
2021/04/20 02:31:11;;;;;;;31.95;18.33;;;7.70;90.90;;;;;;5092007;28;20031;-72
2021/04/20 02:33:37;;;;;;;31.63;18.05;;;7.70;90.90;;;;;;5083877;28;20025;-73
2021/04/20 02:36:04;;;;;;;33.00;19.20;;;7.70;90.90;;;;;;5087249;28;20036;-71
2021/04/20 02:38:32;;;;;;;37.50;20.17;;;7.70;91.00;;;;;;5093356;28;20020;-72
2021/04/20 02:41:01;;;;;;;35.10;19.45;;;7.60;91.00;;;;;;5093800;28;20497;-73
2021/04/20 02:43:27;;;;;;;32.47;19.27;;;7.60;91.00;;;;;;5094612;28;20013;-73
2021/04/20 02:45:54;;;;;;;35.22;19.95;;;7.60;91.00;;;;;;5093941;28;20024;-73
2021/04/20 02:48:20;;;;;;;33.20;18.98;;;7.60;91.10;;;;;;5078268;28;20065;-73
2021/04/20 02:50:47;;;;;;;32.33;18.40;;;7.50;91.10;;;;;;5092957;28;21771;-73
2021/04/20 02:53:17;;;;;;;32.53;18.85;;;7.50;91.20;;;;;;5092324;28;20516;-73
2021/04/20 02:55:44;;;;;;;34.22;19.30;;;7.50;91.40;;;;;;5093392;28;20024;-73
2021/04/20 02:58:23;;;;;;;30.17;18.15;;;7.40;91.50;;;;;;5091861;28;20449;-72
2021/04/20 03:01:16;;;;;;;31.58;18.65;;;7.40;91.60;;;;;;5092963;28;20026;-72
2021/04/20 03:03:47;;;;;;;31.17;17.13;;;7.40;91.70;;;;;;5090942;28;20134;-72
2021/04/20 03:06:14;;;;;;;33.47;18.13;;;7.50;92.00;;;;;;5092257;28;20420;-72
2021/04/20 03:08:44;;;;;;;32.17;17.20;;;7.60;92.10;;;;;;5083367;28;20043;-72
2021/04/20 03:11:15;;;;;;;30.48;18.98;;;7.60;92.20;;;;;;5092734;28;20098;-72
2021/04/20 03:13:46;;;;;;;30.75;18.00;;;7.70;92.40;;;;;;5092205;28;20108;-71
2021/04/20 03:16:14;;;;;;;27.55;16.20;;;7.80;92.50;;;;;;5092518;28;20103;-72
2021/04/20 03:18:40;;;;;;;28.75;17.00;;;8.00;92.60;;;;;;5081772;28;20020;-72
2021/04/20 03:21:14;;;;;;;38.50;19.30;;;8.10;92.60;;;;;;5093006;28;20105;-73
2021/04/20 03:23:40;;;;;;;35.70;21.02;;;8.30;92.80;;;;;;5079919;28;20025;-73
2021/04/20 03:26:37;;;;;;;36.33;20.65;;;8.50;92.80;;;;;;5079667;28;20031;-73
2021/04/20 03:29:05;;;;;;;39.33;21.17;;;8.70;92.60;;;;;;5083470;28;20044;-73
2021/04/20 03:31:31;;;;;;;32.97;19.17;;;9.00;92.60;;;;;;5095469;28;20103;-73
2021/04/20 03:34:18;;;;;;;33.80;19.85;;;9.20;92.70;;;;;;5092074;28;20020;-73
2021/04/20 03:37:04;;;;;;;31.92;19.60;;;9.40;92.40;;;;;;5082573;28;20112;-74
2021/04/20 03:39:33;;;;;;;;;;;9.60;91.90;;;;;;5087831;28;20023;-73
2021/04/20 03:42:15;;;;;;;28.42;17.38;;;10.00;92.20;;;;;;5090293;28;20407;-74
2021/04/20 03:44:45;;;;;;;24.85;15.68;;;10.30;91.80;;;;;;5096589;28;20016;-73
2021/04/20 03:47:20;;;;;;;24.55;15.05;;;10.60;91.60;;;;;;5114372;28;20055;-73
2021/04/20 03:49:49;;;;;;;22.63;14.10;;;11.00;91.10;;;;;;5097312;28;20030;-72
2021/04/20 03:52:26;;;;;;;20.98;14.50;;;11.30;90.60;;;;;;5107330;28;20102;-72
2021/04/20 03:54:55;;;;;;;22.65;14.23;;;11.70;89.70;;;;;;5092992;28;20024;-73
2021/04/20 03:57:24;;;;;;;20.80;13.80;;;12.10;88.40;;;;;;5094522;28;20036;-71
2021/04/20 03:59:52;;;;;;;21.45;14.52;;;12.50;86.30;;;;;;5094041;28;20412;-72
2021/04/20 04:02:18;;;;;;;20.15;13.30;;;12.90;84.20;;;;;;5095777;28;20450;-72
2021/04/20 04:04:48;;;;;;;20.35;13.25;;;13.20;82.30;;;;;;5094718;28;20129;-71
2021/04/20 04:07:18;;;;;;;21.33;14.10;;;13.50;79.60;;;;;;5090203;28;20045;-73
2021/04/20 04:09:45;;;;;;;20.58;14.07;;;13.50;76.30;;;;;;5090541;28;20040;-73
2021/04/20 04:12:12;;;;;;;22.80;15.02;;;13.20;74.60;;;;;;5094209;28;20106;-73
2021/04/20 04:14:40;;;;;;;22.40;14.50;;;12.90;74.10;;;;;;5094328;28;20028;-73
2021/04/20 04:17:08;;;;;;;21.77;14.40;;;12.60;73.90;;;;;;5092619;28;20473;-71
2021/04/20 04:19:40;;;;;;;21.35;14.93;;;12.30;73.70;;;;;;5085964;28;20027;-74
2021/04/20 04:22:10;;;;;;;21.17;14.63;;;12.10;73.80;;;;;;5092588;28;20031;-75
2021/04/20 04:24:40;;;;;;;23.05;15.15;;;11.90;74.20;;;;;;5090488;28;20035;-80
2021/04/20 04:27:07;;;;;;;25.48;17.02;;;11.80;74.70;;;;;;5088875;28;20470;-82
2021/04/20 04:29:35;;;;;;;27.88;18.50;;;11.80;74.40;;;;;;5093580;28;20042;-74
2021/04/20 04:32:02;;;;;;;25.60;17.58;;;11.60;74.60;;;;;;5093945;28;20030;-73
2021/04/20 04:34:28;;;;;;;27.15;18.50;;;11.70;75.30;;;;;;5093046;28;20035;-73
2021/04/20 04:36:54;;;;;;;31.15;19.55;;;11.70;75.20;;;;;;5092961;28;20032;-73
2021/04/20 04:39:20;;;;;;;24.80;16.33;;;11.80;75.00;;;;;;5092298;28;20030;-73
2021/04/20 04:41:49;;;;;;;27.08;17.33;;;11.80;74.60;;;;;;5092488;28;20102;-73
2021/04/20 04:44:15;;;;;;;26.50;16.80;;;11.70;74.20;;;;;;5092880;28;20070;-74
2021/04/20 04:46:42;;;;;;;28.35;19.77;;;11.70;74.20;;;;;;5090316;28;20460;-73
2021/04/20 04:49:09;;;;;;;27.98;18.67;;;11.70;74.20;;;;;;5087977;28;20020;-73
2021/04/20 04:51:37;;;;;;;34.72;20.35;;;11.70;74.10;;;;;;5093020;28;20020;-73
2021/04/20 04:54:05;;;;;;;37.20;20.92;;;11.70;73.80;;;;;;5093548;28;20024;-73
2021/04/20 04:56:32;;;;;;;31.45;17.90;;;11.60;73.60;;;;;;5092946;28;20060;-72
2021/04/20 04:59:00;;;;;;;34.00;18.83;;;11.60;73.60;;;;;;5083497;28;20370;-72
2021/04/20 05:01:27;;;;;;;27.05;17.20;;;11.60;73.70;;;;;;5087674;28;20073;-73
2021/04/20 05:03:53;;;;;;;26.13;16.13;;;11.70;73.90;;;;;;5095248;28;20028;-80
2021/04/20 05:06:20;;;;;;;24.77;15.98;;;11.70;74.10;;;;;;5084603;28;20375;-80
2021/04/20 05:08:46;;;;;;;23.60;15.25;;;11.90;74.40;;;;;;5077474;28;20060;-74
2021/04/20 05:11:14;;;;;;;28.65;16.92;;;12.00;74.00;;;;;;5094297;28;20068;-75
2021/04/20 05:13:40;;;;;;;24.23;16.63;;;12.10;73.50;;;;;;5093630;28;20016;-82
2021/04/20 05:16:07;;;;;;;22.45;14.38;;;12.30;73.40;;;;;;5094438;28;20394;-72
2021/04/20 05:18:35;;;;;;;22.42;14.30;;;12.40;73.10;;;;;;5085050;28;20061;-85
2021/04/20 05:21:01;;;;;;;24.40;14.93;;;12.50;72.30;;;;;;5093713;28;20024;-77
2021/04/20 05:23:27;;;;;;;24.23;15.98;;;12.50;72.00;;;;;;5095020;28;20041;-76
2021/04/20 05:25:56;;;;;;;24.27;16.40;;;12.70;72.10;;;;;;5089291;28;20028;-82
2021/04/20 05:28:22;;;;;;;25.80;15.88;;;13.20;73.00;;;;;;5095463;28;20099;-80
2021/04/20 05:30:52;;;;;;;29.55;16.83;;;13.90;72.80;;;;;;5092332;28;20026;-81
2021/04/20 05:33:17;;;;;;;32.35;17.77;;;14.70;71.60;;;;;;5093857;28;20043;-78
2021/04/20 05:35:43;;;;;;;25.42;16.52;;;15.30;69.50;;;;;;5091842;28;20024;-72
2021/04/20 05:38:09;;;;;;;19.80;13.57;;;16.00;68.10;;;;;;5087077;28;20016;-72
2021/04/20 05:40:40;;;;;;;18.10;13.38;;;16.80;67.10;;;;;;5091540;28;20065;-71
2021/04/20 05:43:06;;;;;;;17.25;12.95;;;17.60;65.00;;;;;;5092096;28;20016;-72
2021/04/20 05:45:32;;;;;;;17.38;12.57;;;18.40;62.30;;;;;;5095661;28;20103;-72
2021/04/20 05:48:00;;;;;;;16.75;12.43;;;18.90;60.10;;;;;;5095938;28;20024;-72
2021/04/20 05:50:28;;;;;;;18.15;12.38;;;19.20;58.10;;;;;;5093334;28;20455;-71
2021/04/20 05:52:56;;;;;;;17.67;12.73;;;19.60;56.40;;;;;;5094732;28;20020;-73
2021/04/20 05:55:22;;;;;;;15.25;12.43;;;19.40;54.40;;;;;;5095364;28;20355;-72
2021/04/20 05:57:51;;;;;;;16.80;12.63;;;19.20;53.90;;;;;;5093801;28;20102;-73
2021/04/20 06:00:19;;;;;;;16.70;12.90;;;18.80;53.50;;;;;;5092875;28;20397;-73
2021/04/20 06:02:50;;;;;;;15.68;12.57;;;18.40;53.40;;;;;;5094325;28;20186;-73
2021/04/20 06:05:25;;;;;;;17.10;12.10;;;18.00;53.70;;;;;;5094301;28;20028;-72
2021/04/20 06:07:59;;;;;;;16.65;12.57;;;17.60;54.40;;;;;;5077766;28;20052;-72
2021/04/20 06:10:25;;;;;;;14.15;11.45;;;17.60;54.80;;;;;;5088820;28;20040;-72
2021/04/20 06:12:51;;;;;;;16.60;11.88;;;17.70;55.50;;;;;;5093022;28;20024;-72
2021/04/20 06:15:23;;;;;;;14.75;11.13;;;18.20;55.50;;;;;;5078322;28;20036;-72
2021/04/20 06:17:52;;;;;;;15.60;11.23;;;18.90;54.50;;;;;;5092614;28;20024;-72
2021/04/20 06:20:19;;;;;;;13.50;10.63;;;19.60;53.70;;;;;;5092728;28;20043;-72
2021/04/20 06:22:49;;;;;;;12.93;10.57;;;20.00;51.90;;;;;;5091833;28;20031;-73
2021/04/20 06:25:16;;;;;;;13.52;10.50;;;20.40;51.10;;;;;;5092434;28;20016;-72
2021/04/20 06:27:43;;;;;;;12.18;10.27;;;20.60;49.60;;;;;;5092139;28;20020;-73
2021/04/20 06:30:10;;;;;;;13.68;10.38;;;20.40;48.40;;;;;;5093721;28;20024;-72
2021/04/20 06:32:38;;;;;;;14.15;11.30;;;19.70;48.30;;;;;;5091667;28;20537;-73
2021/04/20 06:35:05;;;;;;;13.98;10.25;;;19.20;49.10;;;;;;5093949;28;20016;-72
2021/04/20 06:37:35;;;;;;;13.27;11.00;;;18.80;49.90;;;;;;5091978;28;20035;-72
2021/04/20 06:40:04;;;;;;;14.35;10.85;;;18.50;50.80;;;;;;5092229;28;20039;-72
2021/04/20 06:42:32;;;;;;;15.07;10.32;;;18.30;51.30;;;;;;5091596;28;20107;-72
2021/04/20 06:45:06;;;;;;;13.65;10.43;;;18.20;51.70;;;;;;5093426;28;20016;-73
2021/04/20 06:48:03;;;;;;;16.23;10.37;;;18.20;52.00;;;;;;5093711;28;20351;-73
2021/04/20 06:50:32;;;;;;;13.70;10.13;;;18.30;52.10;;;;;;5041656;28;20466;-73
2021/04/20 06:53:03;;;;;;;12.05;9.20;;;18.50;52.30;;;;;;5091776;28;20320;-73
2021/04/20 06:55:56;;;;;;;12.93;9.77;;;18.80;51.60;;;;;;5082735;28;20044;-73
2021/04/20 06:58:26;;;;;;;12.73;9.80;;;18.90;51.00;;;;;;5090590;28;20055;-73
2021/04/20 07:00:57;;;;;;;12.77;9.85;;;18.80;50.80;;;;;;5091865;28;20023;-73
2021/04/20 07:03:28;;;;;;;15.15;10.07;;;18.70;50.80;;;;;;5077698;28;20042;-73
2021/04/20 07:06:07;;;;;;;13.60;9.98;;;18.70;51.00;;;;;;5081101;28;20111;-73
2021/04/20 07:08:45;;;;;;;14.40;10.10;;;18.80;51.10;;;;;;5075505;28;20131;-72
2021/04/20 07:11:16;;;;;;;13.82;9.95;;;19.10;51.40;;;;;;5082847;28;20017;-73
2021/04/20 07:13:47;;;;;;;19.17;10.73;;;19.60;51.60;;;;;;5088506;28;20347;-72
2021/04/20 07:16:24;;;;;;;12.65;8.82;;;20.50;50.80;;;;;;5083726;28;20024;-72
2021/04/20 07:19:22;;;;;;;11.95;7.78;;;21.20;49.30;;;;;;5086918;28;20016;-73
2021/04/20 07:22:01;;;;;;;8.68;7.47;;;22.30;47.50;;;;;;5092967;28;20035;-73
2021/04/20 07:24:58;;;;;;;8.35;6.90;;;23.00;45.70;;;;;;5092170;28;20013;-71
2021/04/20 07:27:31;;;;;;;8.25;6.85;;;23.60;44.50;;;;;;5077017;28;20032;-73
2021/04/20 07:30:23;;;;;;;10.88;6.97;;;24.30;43.60;;;;;;5082071;28;20021;-73
2021/04/20 07:33:20;;;;;;;8.85;7.28;;;24.90;43.00;;;;;;5090644;28;20057;-73
2021/04/20 07:36:06;;;;;;;6.88;5.35;;;25.20;41.20;;;;;;5091117;28;20020;-73
2021/04/20 07:38:40;;;;;;;7.07;6.20;;;25.70;40.00;;;;;;5091507;28;20027;-73
2021/04/20 07:41:12;;;;;;;6.33;5.60;;;25.50;39.00;;;;;;5077291;28;20063;-73
2021/04/20 07:44:15;;;;;;;7.05;5.95;;;25.10;38.90;;;;;;5092133;28;20345;-72
2021/04/20 07:46:52;;;;;;;7.43;5.93;;;24.70;39.10;;;;;;5080694;28;20034;-73
2021/04/20 07:49:35;;;;;;;7.85;5.90;;;24.30;39.10;;;;;;5094350;28;20469;-72
2021/04/20 07:52:08;;;;;;;7.57;6.15;;;24.00;39.00;;;;;;5096289;28;20031;-73
2021/04/20 07:55:14;;;;;;;8.32;7.00;;;23.40;39.40;;;;;;5095626;28;20081;-73
2021/04/20 07:57:56;;;;;;;8.32;6.93;;;23.40;40.20;;;;;;5040308;28;20033;-73
2021/04/20 08:00:33;;;;;;;8.40;6.43;;;23.20;40.50;;;;;;5082463;28;20020;-72
2021/04/20 08:03:21;;;;;;;9.07;6.45;;;22.90;40.30;;;;;;5092027;28;20118;-72
2021/04/20 08:06:30;;;;;;;9.60;6.65;;;22.40;40.50;;;;;;5093664;28;20099;-72
2021/04/20 08:09:06;;;;;;;9.57;6.68;;;22.40;41.20;;;;;;4996734;28;20044;-72
2021/04/20 08:11:34;;;;;;;7.45;6.32;;;22.50;41.40;;;;;;5081597;28;20374;-73
2021/04/20 08:14:30;;;;;;;10.95;6.90;;;22.70;41.20;;;;;;5092379;28;20450;-73
2021/04/20 08:17:02;;;;;;;;;;;22.70;41.30;;;;;;5091847;28;20032;-72
2021/04/20 08:19:43;;;;;;;7.95;6.35;;;22.90;42.40;;;;;;5092894;28;19909;-72
2021/04/20 08:22:12;;;;;;;8.02;6.18;;;23.10;41.00;;;;;;5092865;28;20493;-73
2021/04/20 08:24:40;;;;;;;8.98;6.97;;;23.20;40.40;;;;;;5087824;28;20024;-72
2021/04/20 08:27:33;;;;;;;8.02;6.38;;;23.30;40.00;;;;;;5090380;28;20028;-73
2021/04/20 08:30:16;;;;;;;8.02;5.68;;;23.50;39.70;;;;;;5085465;28;20062;-72
2021/04/20 08:32:45;;;;;;;7.40;5.90;;;23.50;39.10;;;;;;5080111;28;20103;-72
2021/04/20 08:35:16;;;;;;;8.23;6.05;;;23.10;38.80;;;;;;5084909;28;20016;-74
2021/04/20 08:38:00;;;;;;;8.85;6.30;;;22.80;39.10;;;;;;5092015;28;20423;-75
2021/04/20 08:40:37;;;;;;;8.50;6.10;;;22.50;39.70;;;;;;5094775;28;20077;-70
2021/04/20 08:43:27;;;;;;;7.75;5.57;;;22.40;40.60;;;;;;5080616;28;20040;-72
2021/04/20 08:46:27;;;;;;;6.43;5.30;;;22.90;40.10;;;;;;5096108;28;20032;-73
2021/04/20 08:49:18;;;;;;;7.45;5.20;;;23.20;39.50;;;;;;5083907;28;20430;-72
2021/04/20 08:51:47;;;;;;;7.47;5.25;;;23.10;39.10;;;;;;5075834;28;20110;-72
2021/04/20 08:54:16;;;;;;;5.82;4.72;;;23.20;39.40;;;;;;5088801;28;20035;-74
2021/04/20 08:57:09;;;;;;;6.53;5.07;;;23.10;38.50;;;;;;5095437;28;20085;-72
2021/04/20 08:59:50;;;;;;;8.48;4.40;;;23.40;39.10;;;;;;5057798;28;20032;-72
2021/04/20 09:02:42;;;;;;;5.93;4.18;;;23.80;38.00;;;;;;5085512;28;20024;-72
2021/04/20 09:05:26;;;;;;;5.22;4.13;;;24.00;37.30;;;;;;5094536;28;20012;-72
2021/04/20 09:08:11;;;;;;;5.70;3.88;;;24.10;37.50;;;;;;5086777;28;20034;-72
2021/04/20 09:11:07;;;;;;;7.22;4.70;;;24.20;36.90;;;;;;5088130;28;20033;-72
2021/04/20 09:13:58;;;;;;;5.15;4.20;;;24.00;36.90;;;;;;5088418;28;20078;-73
2021/04/20 09:16:49;;;;;;;8.43;4.90;;;23.90;36.30;;;;;;5093961;28;20032;-73
2021/04/20 09:19:37;;;;;;;5.47;4.30;;;23.90;36.50;;;;;;5079955;28;20012;-73
2021/04/20 09:22:48;;;;;;;7.30;4.72;;;23.70;36.70;;;;;;5082770;28;20146;-72
2021/04/20 09:25:16;;;;;;;5.78;4.20;;;23.30;36.90;;;;;;5095599;28;20071;-73
2021/04/20 09:28:24;;;;;;;6.78;4.38;;;23.30;37.40;;;;;;5095317;28;20023;-73
2021/04/20 09:31:10;;;;;;;7.05;4.40;;;23.40;37.10;;;;;;5095169;28;20021;-73
2021/04/20 09:34:09;;;;;;;4.75;3.85;;;23.70;37.40;;;;;;5093432;28;20422;-73
2021/04/20 09:36:36;;;;;;;5.75;4.03;;;24.20;37.20;;;;;;5051429;28;20033;-74
2021/04/20 09:39:04;;;;;;;6.60;3.85;;;24.60;36.90;;;;;;5073681;28;20120;-74
2021/04/20 09:41:35;;;;;;;8.63;4.80;;;24.70;36.10;;;;;;5080094;28;20539;-73
2021/04/20 09:44:13;;;;;;;5.90;4.68;;;24.70;35.80;;;;;;5096004;28;20034;-73
2021/04/20 09:46:47;;;;;;;6.18;4.15;;;24.90;36.30;;;;;;5081365;28;20060;-73
2021/04/20 09:49:30;;;;;;;6.40;4.63;;;25.20;35.80;;;;;;5095573;28;20080;-74
2021/04/20 09:52:14;;;;;;;5.35;4.32;;;25.60;35.20;;;;;;5074457;28;20079;-74
2021/04/20 09:54:55;;;;;;;6.57;4.43;;;25.60;34.20;;;;;;5091167;28;20016;-73
2021/04/20 09:57:27;;;;;;;6.82;4.55;;;25.20;34.30;;;;;;5096671;28;20032;-73
2021/04/20 09:59:58;;;;;;;7.65;4.85;;;24.70;34.40;;;;;;5082421;28;20016;-73
2021/04/20 10:03:08;;;;;;;8.93;5.07;;;24.10;35.00;;;;;;5086459;28;20103;-71
2021/04/20 10:05:54;;;;;;;6.78;4.82;;;23.50;36.00;;;;;;5063900;28;20031;-73
2021/04/20 10:08:53;;;;;;;7.15;4.85;;;23.00;36.30;;;;;;5093446;28;20028;-73
2021/04/20 10:11:47;;;;;;;8.10;4.82;;;22.80;37.80;;;;;;5084527;28;20032;-73
2021/04/20 10:14:39;;;;;;;7.72;5.35;;;22.80;37.50;;;;;;5094490;28;20489;-73
2021/04/20 10:17:24;;;;;;;8.60;5.85;;;23.00;37.90;;;;;;5093382;28;20031;-73
2021/04/20 10:20:14;;;;;;;6.93;4.78;;;23.70;37.70;;;;;;5084537;28;20020;-74
2021/04/20 10:22:57;;;;;;;7.63;4.47;;;24.20;37.10;;;;;;5093755;28;20031;-73
2021/04/20 10:25:35;;;;;;;8.02;4.60;;;24.10;36.30;;;;;;5079495;28;20020;-73
2021/04/20 10:28:15;;;;;;;6.80;4.95;;;23.80;36.90;;;;;;5072587;28;20024;-74
2021/04/20 10:30:43;;;;;;;5.57;4.60;;;23.60;37.20;;;;;;5087612;28;20085;-74
2021/04/20 10:33:11;;;;;;;11.75;5.22;;;23.60;37.10;;;;;;5092695;28;20016;-73
2021/04/20 10:35:38;;;;;;;7.03;5.28;;;23.50;37.30;;;;;;5093860;28;20012;-73
2021/04/20 10:38:14;;;;;;;6.68;4.68;;;23.80;37.60;;;;;;5088103;28;20024;-74
2021/04/20 10:40:44;;;;;;;5.28;4.43;;;23.90;37.20;;;;;;5085709;28;20020;-74
2021/04/20 10:43:11;;;;;;;5.65;4.43;;;24.30;36.70;;;;;;5093578;28;20107;-74
2021/04/20 10:45:38;;;;;;;5.28;3.90;;;24.60;36.00;;;;;;5093378;28;20020;-73
2021/04/20 10:48:05;;;;;;;6.60;4.38;;;24.80;35.70;;;;;;5087492;28;20023;-74
2021/04/20 10:50:34;;;;;;;7.05;4.35;;;24.60;35.40;;;;;;5083995;28;20524;-73
2021/04/20 10:53:11;;;;;;;5.95;4.60;;;24.10;35.90;;;;;;5078172;28;20036;-73
2021/04/20 10:55:41;;;;;;;6.05;4.15;;;23.70;35.70;;;;;;5082061;28;20467;-73
2021/04/20 10:58:10;;;;;;;5.65;4.25;;;23.30;36.00;;;;;;5088959;28;20028;-73
2021/04/20 11:00:38;;;;;;;6.32;4.43;;;23.30;36.30;;;;;;5093634;28;20020;-73
2021/04/20 11:03:05;;;;;;;8.07;4.57;;;23.00;36.20;;;;;;5077746;28;20020;-73
2021/04/20 11:05:31;;;;;;;7.13;4.88;;;23.00;37.00;;;;;;5084357;28;20401;-74
2021/04/20 11:07:58;;;;;;;6.13;4.78;;;23.30;37.00;;;;;;5077511;28;20111;-73
2021/04/20 11:10:27;;;;;;;5.85;4.60;;;23.40;36.90;;;;;;5089101;28;20165;-71
2021/04/20 11:12:54;;;;;;;5.55;4.50;;;23.50;36.80;;;;;;5093359;28;20478;-73
2021/04/20 11:15:28;;;;;;;5.90;4.03;;;23.90;36.30;;;;;;5077796;28;20025;-73
2021/04/20 11:17:54;;;;;;;7.68;4.50;;;23.80;35.90;;;;;;5084263;28;20028;-73
2021/04/20 11:20:42;;;;;;;8.93;6.20;;;23.60;35.90;;;;;;5086279;28;20512;-73
2021/04/20 11:23:08;;;;;;;8.27;5.55;;;23.40;36.30;;;;;;5080976;28;20024;-73
2021/04/20 11:25:53;;;;;;;8.32;6.18;;;23.10;37.20;;;;;;5077458;28;20017;-73
2021/04/20 11:29:00;;;;;;;8.88;7.20;;;23.20;37.70;;;;;;5082518;28;20166;-73
2021/04/20 11:31:35;;;;;;;11.35;7.35;;;23.20;38.00;;;;;;5067385;28;20044;-73
2021/04/20 11:34:20;;;;;;;12.20;8.15;;;23.00;38.50;;;;;;5093123;28;20017;-73
2021/04/20 11:36:57;;;;;;;11.27;7.50;;;23.00;38.90;;;;;;5091804;28;20311;-74
2021/04/20 11:39:34;;;;;;;10.15;8.40;;;22.80;38.80;;;;;;5093026;28;20511;-74
2021/04/20 11:42:27;;;;;;;10.43;8.13;;;22.20;39.30;;;;;;5081378;28;20438;-73
2021/04/20 11:44:56;;;;;;;11.95;7.72;;;21.80;40.00;;;;;;5078427;28;20108;-74
2021/04/20 11:47:22;;;;;;;12.15;8.18;;;21.40;40.60;;;;;;5093508;28;20024;-74
2021/04/20 11:49:55;;;;;;;17.23;9.63;;;21.00;41.10;;;;;;5077863;28;20107;-74
2021/04/20 11:52:26;;;;;;;9.52;8.48;;;20.70;41.90;;;;;;5093232;28;20051;-73
2021/04/20 11:55:06;;;;;;;9.98;8.20;;;20.40;42.40;;;;;;5087914;28;20451;-72
2021/04/20 11:57:33;;;;;;;12.25;8.95;;;20.10;42.80;;;;;;5087372;28;20110;-72
2021/04/20 12:00:00;;;;;;;12.88;8.20;;;19.90;43.30;;;;;;5084064;28;20020;-73
2021/04/20 12:02:29;;;;;;;12.80;8.30;;;19.60;44.10;;;;;;5099782;28;20087;-72
2021/04/20 12:05:05;;;;;;;14.25;8.10;;;19.50;44.60;;;;;;5099789;28;20028;-72
2021/04/20 12:07:32;;;;;;;12.00;8.02;;;19.30;45.10;;;;;;5092857;28;20050;-73
2021/04/20 12:09:58;;;;;;;11.95;9.27;;;19.10;45.50;;;;;;5090080;28;20186;-73
2021/04/20 12:12:29;;;;;;;11.18;7.97;;;18.90;46.10;;;;;;5083595;28;20031;-71
2021/04/20 12:14:57;;;;;;;10.27;8.43;;;18.70;46.50;;;;;;5099015;28;20023;-73
2021/04/20 12:17:31;;;;;;;11.02;8.20;;;18.60;46.70;;;;;;5095652;28;20373;-73
2021/04/20 12:19:59;;;;;;;11.10;8.93;;;18.50;46.90;;;;;;5097458;28;20077;-73
2021/04/20 12:22:27;;;;;;;12.73;9.23;;;18.60;47.20;;;;;;5096343;28;20095;-73
2021/04/20 12:24:54;;;;;;;12.13;9.75;;;18.50;47.30;;;;;;5086993;28;20107;-73
2021/04/20 12:27:25;;;;;;;10.25;8.90;;;18.30;47.70;;;;;;5091954;28;20353;-73
2021/04/20 12:29:52;;;;;;;16.17;8.68;;;18.30;48.20;;;;;;5095064;28;20023;-73
2021/04/20 12:32:20;;;;;;;11.85;7.95;;;18.20;48.30;;;;;;5081103;28;20120;-72
2021/04/20 12:34:55;;;;;;;11.65;9.10;;;18.10;48.40;;;;;;5096145;28;20408;-73
2021/04/20 12:37:26;;;;;;;9.75;7.85;;;18.10;48.80;;;;;;5096392;28;20032;-71
2021/04/20 12:40:03;;;;;;;12.18;8.02;;;18.10;48.30;;;;;;5083042;28;20385;-73
2021/04/20 12:42:35;;;;;;;11.50;7.97;;;18.00;48.30;;;;;;5080372;28;20020;-72
2021/04/20 12:45:13;;;;;;;10.15;7.50;;;17.90;48.60;;;;;;5097104;28;20012;-73
2021/04/20 12:47:40;;;;;;;10.93;8.32;;;17.90;48.70;;;;;;5096296;28;20062;-73
2021/04/20 12:50:09;;;;;;;12.38;7.90;;;17.80;48.80;;;;;;5096381;28;20103;-73
2021/04/20 12:52:39;;;;;;;10.20;8.00;;;17.80;49.00;;;;;;5095937;28;20466;-73
2021/04/20 12:55:09;;;;;;;13.80;8.02;;;17.70;49.30;;;;;;5088865;28;20099;-73
2021/04/20 12:57:39;;;;;;;13.32;8.07;;;17.80;49.40;;;;;;5087344;28;20032;-74
2021/04/20 13:00:29;;;;;;;13.10;9.57;;;17.90;49.30;;;;;;5096218;28;20415;-74
2021/04/20 13:02:58;;;;;;;12.43;9.45;;;17.80;49.30;;;;;;5094187;28;20024;-74
2021/04/20 13:05:29;;;;;;;12.73;10.02;;;17.70;49.60;;;;;;5095892;28;20012;-73
2021/04/20 13:08:19;;;;;;;12.73;9.88;;;17.60;50.00;;;;;;5086596;28;20081;-72